Dobrodošli na spletni strani vremenske postaje Senovo. Vse informacije so informativnega značaja, saj vremenska postaja ni del državne mreže meteoroloških postaj. AKTUALNIH OBVESTIL NI.


Sneg/Led Od: 21-02-2018 00:00 Do: 23-02-2018 23:59 Opozorilo za: Sneg/Led Stopnja: Rumena info button
Veter Od: 21-02-2018 00:00 Do: 22-02-2018 23:59 Opozorilo za: Veter Stopnja: Rumena info button

Pogled proti Armezu več informacij Pogled proti Armezu


Lisca več informacij Lisca


Radar strel več informacij blitzortung!


opozorilo za sneg/led več informacij rain snow radar


Obiščite še:

Template documentation
and downloads

And another site



Weather Underground, zgodovina - Tekstovno

Dnevni povzetek za December 15, 2017 Enote:  Angleško    Metrično   Obe
« Predhodni Dan
Naslednji Dan »
Dnevni Tedenski Mesečni Letni Po meri
  Višja: Nižja: Povprečje:
Temperatura: TemperatureC °F 1.4 °F 5.5 °F
Točka rosišča: DewpointC °F -0.3 °F 4 °F
Vlažnost: Humidity % 80 % 90 %
Hitrost vetra: WindSpeedKMH mph 0.0 mph 3.3 mph
Sunki vetra: WindSpeedGustKMH mph - -
Veter:- - South
Zračni tlak: PressurehPa in 0.0 in -
Padavine: 25.1 in    
Historical Graphs
 
 
Tabelarni podarki za December 15, 2017
Čas Temperatura Točka rosišča Zračni tlak Veter Hitrost vetra Sunki vetra Vlažnost Intenziteta padavin (urna)
TemperatureC °F DewpointC °F PressurehPa in Calm     Humidity % HourlyPrecipMM in
00:02 3.7 °F 2.7 °F 999.9 in Calm     93 % 0.3 in
00:07 3.7 °F 2.7 °F 999.9 in Calm     93 % 0.3 in
00:12 3.6 °F 2.6 °F 999.9 in Calm     93 % 0.3 in
00:17 3.5 °F 2.5 °F 999.9 in South 0.2 mph 1.8 mph 93 % 0.3 in
00:22 3.4 °F 2.4 °F 999.9 in SW 1.0 mph 4.3 mph 93 % 0.3 in
00:27 3.3 °F 2.3 °F 998.9 in WSW 0.8 mph 4.3 mph 93 % 0.3 in
00:32 3.3 °F 2.3 °F 998.9 in Calm     93 % 0.3 in
00:37 3.3 °F 2.3 °F 998.9 in Calm     93 % 0.3 in
00:42 3.3 °F 2.3 °F 998.9 in Calm     93 % 0.3 in
00:47 3.1 °F 2.1 °F 998.9 in Calm     93 % 0.3 in
00:52 3.1 °F 2.1 °F 998.9 in Calm     93 % 0.3 in
00:57 3.1 °F 2.1 °F 998.9 in Calm     93 % 0.0 in
01:02 3.1 °F 2.1 °F 998.9 in Calm     93 % 0.0 in
01:07 3.1 °F 2.1 °F 998.9 in Calm     93 % 0.0 in
01:12 3.1 °F 2.1 °F 998.9 in Calm     93 % 0.0 in
01:13 3.1 °F 2.1 °F 998.9 in Calm     93 % 0.0 in
01:18 3.1 °F 2.1 °F 998.9 in Calm     93 % 0.0 in
01:21 3.0 °F 2.0 °F 998.9 in Calm     93 % 0.0 in
01:26 3.0 °F 2.0 °F 998.9 in Calm     93 % 0.0 in
01:27 3.0 °F 2.0 °F 998.9 in Calm     93 % 0.0 in
01:32 3.0 °F 2.0 °F 998.9 in Calm     93 % 0.0 in
01:37 3.0 °F 2.0 °F 998.9 in Calm     93 % 0.0 in
01:42 3.0 °F 2.0 °F 998.9 in Calm     93 % 0.0 in
01:47 3.1 °F 2.2 °F 998.9 in NNW 0.3 mph 3.2 mph 94 % 0.0 in
01:52 3.0 °F 2.1 °F 998.9 in NNW 0.2 mph 3.2 mph 94 % 0.0 in
01:57 3.0 °F 2.1 °F 998.9 in NNW 0.2 mph 2.1 mph 94 % 0.0 in
02:02 3.0 °F 2.1 °F 998.9 in NNW 0.2 mph 2.1 mph 94 % 0.0 in
02:07 3.0 °F 2.1 °F 998.9 in Calm     94 % 0.0 in
02:12 3.0 °F 2.1 °F 998.9 in Calm     94 % 0.0 in
02:18 3.0 °F 2.1 °F 998.9 in NNE 0.2 mph 2.6 mph 94 % 0.0 in
02:23 3.0 °F 2.1 °F 998.9 in NNE 0.5 mph 2.6 mph 94 % 0.0 in
02:28 3.0 °F 2.1 °F 998.9 in NW 0.5 mph 2.6 mph 94 % 0.0 in
02:29 3.0 °F 2.1 °F 998.9 in NW 0.5 mph 2.6 mph 94 % 0.0 in
02:34 3.0 °F 2.1 °F 998.9 in NNW 0.2 mph 2.6 mph 94 % 0.0 in
02:39 3.0 °F 2.1 °F 998.9 in Calm     94 % 0.0 in
02:44 3.0 °F 2.1 °F 998.9 in Calm   3.2 mph 94 % 0.0 in
02:49 3.0 °F 2.1 °F 998.9 in NNW 0.3 mph 3.2 mph 94 % 0.0 in
02:54 2.8 °F 2.1 °F 998.9 in NNW 0.3 mph 3.2 mph 95 % 0.0 in
02:59 2.8 °F 2.1 °F 997.9 in Calm     95 % 0.0 in
03:04 2.8 °F 2.1 °F 997.9 in Calm     95 % 0.0 in
03:09 2.7 °F 2.0 °F 997.9 in Calm     95 % 0.0 in
03:14 2.7 °F 2.0 °F 996.8 in Calm     95 % 0.0 in
03:19 2.6 °F 1.9 °F 996.8 in Calm     95 % 0.0 in
03:24 2.6 °F 1.9 °F 996.8 in Calm     95 % 0.0 in
03:30 2.4 °F 1.7 °F 996.8 in Calm     95 % 0.0 in
03:35 2.4 °F 1.7 °F 996.8 in Calm     95 % 0.0 in
03:40 2.4 °F 1.7 °F 996.8 in Calm     95 % 0.0 in
03:45 2.4 °F 1.7 °F 996.8 in Calm     95 % 0.0 in
03:50 2.3 °F 1.6 °F 996.8 in Calm     95 % 0.0 in
03:55 2.3 °F 1.6 °F 996.8 in WNW 0.2 mph 1.4 mph 95 % 0.0 in
04:00 2.3 °F 1.6 °F 996.8 in WNW 0.2 mph 1.4 mph 95 % 0.0 in
04:05 2.3 °F 1.6 °F 996.8 in Calm     95 % 0.0 in
04:10 2.3 °F 1.6 °F 996.8 in Calm     95 % 0.0 in
04:15 2.4 °F 1.7 °F 996.8 in Calm     95 % 0.3 in
04:20 2.6 °F 1.9 °F 996.8 in Calm     95 % 0.3 in
04:25 2.6 °F 1.9 °F 996.8 in Calm     95 % 0.3 in
04:30 2.7 °F 2.0 °F 996.8 in NW 0.2 mph 2.1 mph 95 % 0.3 in
04:35 2.7 °F 2.1 °F 996.8 in NW 0.6 mph 4.3 mph 96 % 0.3 in
04:40 3.0 °F 2.3 °F 996.8 in NW 0.5 mph 4.3 mph 95 % 0.3 in
04:45 3.2 °F 2.6 °F 996.8 in Calm     96 % 0.3 in
04:50 3.4 °F 2.8 °F 996.8 in Calm     96 % 0.3 in
04:55 3.4 °F 2.8 °F 996.8 in Calm     96 % 0.3 in
05:00 3.5 °F 2.9 °F 996.8 in Calm     96 % 0.3 in
05:05 3.6 °F 3.0 °F 996.8 in Calm     96 % 0.3 in
05:11 3.8 °F 3.2 °F 996.8 in Calm     96 % 0.3 in
05:16 3.9 °F 3.3 °F 996.8 in Calm     96 % 0.0 in
05:21 4.0 °F 3.4 °F 996.8 in Calm     96 % 0.0 in
05:26 4.1 °F 3.5 °F 996.8 in Calm     96 % 0.0 in
05:31 4.1 °F 3.5 °F 996.8 in Calm   3.2 mph 96 % 0.0 in
05:36 4.3 °F 3.7 °F 996.8 in WNW 0.2 mph 3.2 mph 96 % 0.0 in
05:41 4.4 °F 3.8 °F 996.8 in WNW 0.2 mph 1.8 mph 96 % 0.0 in
05:46 4.4 °F 3.8 °F 996.2 in Calm     96 % 0.0 in
05:47 4.4 °F 3.8 °F 996.2 in Calm     96 % 0.0 in
05:52 4.3 °F 3.7 °F 996.2 in Calm   2.1 mph 96 % 0.0 in
05:57 4.3 °F 3.7 °F 996.8 in WNW 1.1 mph 5.5 mph 96 % 0.0 in
06:02 4.3 °F 3.7 °F 996.8 in WNW 1.1 mph 5.5 mph 96 % 0.0 in
06:07 4.3 °F 3.7 °F 996.8 in Calm     96 % 0.0 in
06:12 4.3 °F 3.7 °F 996.2 in Calm     96 % 0.0 in
06:18 4.3 °F 3.7 °F 996.2 in WNW 0.5 mph 4.0 mph 96 % 0.0 in
06:23 4.3 °F 3.7 °F 996.2 in WNW 0.5 mph 4.0 mph 96 % 0.0 in
06:28 4.3 °F 3.7 °F 996.2 in Calm     96 % 0.0 in
06:33 4.3 °F 3.9 °F 996.2 in Calm   4.0 mph 97 % 0.0 in
06:38 4.3 °F 3.9 °F 996.2 in SW 0.3 mph 4.0 mph 97 % 0.0 in
06:43 4.3 °F 3.9 °F 996.2 in NNW 0.2 mph 2.1 mph 97 % 0.0 in
06:48 4.3 °F 3.9 °F 996.2 in Calm   2.1 mph 97 % 0.0 in
06:53 4.3 °F 3.9 °F 996.2 in Calm     97 % 0.0 in
06:59 4.3 °F 3.9 °F 0.0 in Calm     97 % 0.0 in
07:04 4.3 °F 3.9 °F 996.8 in Calm     97 % 0.0 in
07:08 4.3 °F 3.9 °F 996.8 in Calm     97 % 0.0 in
07:13 4.2 °F 3.8 °F 996.2 in Calm     97 % 0.0 in
07:17 4.3 °F 3.9 °F 996.2 in Calm     97 % 0.0 in
07:23 4.3 °F 3.9 °F 996.2 in Calm     97 % 0.0 in
07:28 4.3 °F 3.9 °F 996.8 in Calm     97 % 0.0 in
07:33 4.3 °F 3.9 °F 996.8 in Calm     97 % 0.0 in
07:38 4.4 °F 3.9 °F 996.8 in Calm   2.6 mph 97 % 0.0 in
07:43 4.5 °F 4.1 °F 996.2 in Calm   2.6 mph 97 % 0.0 in
07:48 4.6 °F 4.2 °F 996.2 in NW 0.5 mph 4.0 mph 97 % 0.0 in
07:53 4.8 °F 4.4 °F 996.2 in NW 1.0 mph 5.0 mph 97 % 0.0 in
07:58 5.0 °F 4.6 °F 996.8 in NW 1.4 mph 5.0 mph 97 % 0.0 in
08:03 5.1 °F 4.7 °F 996.8 in NW 2.6 mph 7.6 mph 97 % 0.0 in
08:08 5.3 °F 4.9 °F 996.8 in NW 2.1 mph 7.6 mph 97 % 0.0 in
08:13 5.4 °F 4.9 °F 996.8 in NW 1.1 mph 6.1 mph 97 % 0.0 in
08:18 5.6 °F 5.2 °F 996.8 in NNW 0.8 mph 6.1 mph 97 % 0.0 in
08:23 5.6 °F 5.2 °F 996.8 in WNW 0.2 mph 4.3 mph 97 % 0.0 in
08:28 5.7 °F 5.3 °F 996.2 in WNW 0.6 mph 4.7 mph 97 % 0.0 in
08:33 5.7 °F 5.3 °F 996.2 in WNW 0.6 mph 4.7 mph 97 % 0.0 in
08:38 5.9 °F 5.4 °F 996.2 in NW 0.5 mph 4.0 mph 97 % 0.0 in
08:43 6.0 °F 5.6 °F 996.2 in NW 1.3 mph 4.3 mph 97 % 0.0 in
08:48 6.1 °F 5.7 °F 996.2 in NW 1.1 mph 4.7 mph 97 % 0.0 in
08:53 6.4 °F 5.9 °F 996.2 in NW 2.4 mph 7.9 mph 97 % 0.0 in
08:58 6.6 °F 6.2 °F 996.8 in NW 3.9 mph 7.9 mph 97 % 0.0 in
09:03 6.7 °F 6.3 °F 996.8 in NW 2.4 mph 7.6 mph 97 % 0.0 in
09:08 7.0 °F 6.6 °F 996.8 in NW 3.2 mph 9.0 mph 97 % 0.0 in
09:13 7.1 °F 6.7 °F 996.8 in NW 4.5 mph 9.0 mph 97 % 0.0 in
09:18 7.4 °F 6.9 °F 996.8 in WNW 4.3 mph 8.7 mph 97 % 0.0 in
09:23 7.5 °F 7.1 °F 996.8 in WNW 4.0 mph 8.7 mph 97 % 0.0 in
09:28 7.8 °F 7.3 °F 996.8 in NNW 2.4 mph 6.4 mph 97 % 0.0 in
09:33 8.2 °F 7.8 °F 996.8 in NW 3.4 mph 9.7 mph 97 % 0.0 in
09:38 8.4 °F 7.9 °F 996.8 in WNW 2.7 mph 9.7 mph 97 % 0.0 in
09:43 8.6 °F 8.2 °F 996.2 in NNW 2.9 mph 4.7 mph 97 % 0.0 in
09:48 8.8 °F 8.3 °F 996.2 in NW 2.1 mph 4.7 mph 97 % 0.0 in
09:53 8.9 °F 8.4 °F 996.2 in WNW 1.3 mph 4.7 mph 97 % 0.0 in
09:58 9.1 °F 8.7 °F 996.8 in NW 1.8 mph 7.2 mph 97 % 0.0 in
10:03 9.3 °F 8.8 °F 996.8 in WNW 2.3 mph 7.2 mph 97 % 0.0 in
10:08 9.4 °F 8.9 °F 996.8 in NW 1.3 mph 4.7 mph 97 % 0.0 in
10:13 9.5 °F 9.1 °F 996.8 in NW 0.6 mph 3.5 mph 97 % 0.0 in
10:18 9.7 °F 9.2 °F 996.8 in West 1.6 mph 6.9 mph 97 % 0.0 in
10:23 9.9 °F 9.4 °F 996.8 in West 3.1 mph 6.9 mph 97 % 0.0 in
10:28 10.1 °F 9.7 °F 996.8 in West 3.7 mph 7.9 mph 97 % 0.0 in
10:33 10.2 °F 9.7 °F 996.8 in WSW 2.4 mph 7.9 mph 97 % 0.0 in
10:38 10.3 °F 9.8 °F 996.8 in West 0.3 mph 3.5 mph 97 % 0.0 in
10:43 10.5 °F 10.1 °F 996.8 in NNW 2.3 mph 6.4 mph 97 % 0.0 in
10:48 10.6 °F 10.2 °F 996.8 in NW 2.7 mph 6.4 mph 97 % 0.0 in
10:53 10.7 °F 10.2 °F 996.8 in West 2.3 mph 5.8 mph 97 % 0.0 in
10:58 10.7 °F 10.2 °F 996.8 in WSW 2.1 mph 5.8 mph 97 % 0.0 in
11:04 10.8 °F 10.3 °F 996.8 in West 2.4 mph 6.1 mph 97 % 0.0 in
11:09 10.8 °F 10.2 °F 996.8 in NNW 2.6 mph 6.1 mph 96 % 0.0 in
11:14 10.9 °F 10.3 °F 996.8 in WNW 1.1 mph 5.8 mph 96 % 0.0 in
11:19 10.9 °F 10.3 °F 996.8 in WNW 0.6 mph 4.7 mph 96 % 0.0 in
11:24 10.9 °F 10.3 °F 996.8 in North 1.8 mph 5.0 mph 96 % 0.0 in
11:29 10.9 °F 10.3 °F 996.8 in NE 1.4 mph 5.0 mph 96 % 0.0 in
11:34 11.0 °F 10.2 °F 996.8 in NNW 0.5 mph 4.0 mph 95 % 0.0 in
11:39 11.1 °F 10.3 °F 996.8 in NNW 0.3 mph 4.0 mph 95 % 0.0 in
11:44 11.1 °F 10.3 °F 996.8 in WNW 0.8 mph 4.3 mph 95 % 0.0 in
11:49 11.2 °F 10.3 °F 996.8 in NNW 0.8 mph 4.3 mph 94 % 0.0 in
11:54 11.2 °F 10.3 °F 996.8 in NNE 0.5 mph 4.0 mph 94 % 0.0 in
11:59 11.3 °F 10.4 °F 996.8 in WNW 0.5 mph 4.0 mph 94 % 0.0 in
12:04 11.3 °F 10.4 °F 996.8 in NW 0.6 mph 4.3 mph 94 % 0.0 in
12:09 11.3 °F 10.2 °F 996.8 in NW 0.3 mph 4.3 mph 93 % 0.0 in
12:14 11.2 °F 10.1 °F 996.8 in SSW 0.3 mph 3.2 mph 93 % 0.0 in
12:19 11.2 °F 10.1 °F 996.8 in WSW 1.1 mph 5.8 mph 93 % 0.0 in
12:24 11.2 °F 9.9 °F 996.8 in WSW 2.6 mph 9.7 mph 92 % 0.0 in
12:29 11.3 °F 10.1 °F 996.8 in SW 4.3 mph 11.6 mph 92 % 0.0 in
12:34 11.3 °F 10.1 °F 996.8 in SSW 6.4 mph 16.6 mph 92 % 0.0 in
12:39 11.4 °F 10.0 °F 996.8 in SSW 7.2 mph 16.6 mph 91 % 0.0 in
12:44 11.5 °F 9.7 °F 996.8 in SSW 5.5 mph 9.7 mph 89 % 0.0 in
12:49 11.4 °F 9.5 °F 996.8 in WSW 7.4 mph 24.5 mph 88 % 0.0 in
12:54 11.4 °F 9.3 °F 996.8 in WSW 9.3 mph 24.5 mph 87 % 0.3 in
13:00 11.1 °F 8.7 °F 996.8 in WSW 8.4 mph 19.8 mph 85 % 0.5 in
13:05 11.1 °F 8.7 °F 996.8 in West 6.3 mph 13.7 mph 85 % 0.5 in
13:10 11.1 °F 8.5 °F 996.8 in SW 3.4 mph 9.3 mph 84 % 0.5 in
13:15 11.1 °F 8.3 °F 996.8 in South 2.9 mph 6.9 mph 83 % 0.5 in
13:20 11.0 °F 8.2 °F 996.8 in South 2.6 mph 5.5 mph 83 % 0.5 in
13:25 11.0 °F 8.2 °F 996.8 in South 2.1 mph 5.0 mph 83 % 0.5 in
13:30 10.9 °F 8.1 °F 996.8 in SSE 1.6 mph 5.0 mph 83 % 0.5 in
13:34 10.9 °F 8.1 °F 996.8 in SSE 1.1 mph 6.1 mph 83 % 0.5 in
13:39 10.8 °F 8.0 °F 996.8 in SSE 2.6 mph 6.1 mph 83 % 0.5 in
13:44 10.7 °F 7.9 °F 996.2 in South 3.7 mph 5.8 mph 83 % 0.5 in
13:49 10.6 °F 7.8 °F 996.2 in South 3.7 mph 5.8 mph 83 % 0.5 in
13:54 10.6 °F 7.8 °F 996.2 in South 3.4 mph 5.8 mph 83 % 0.3 in
13:59 10.6 °F 7.8 °F 996.8 in South 1.1 mph 4.3 mph 83 % 0.0 in
14:04 10.6 °F 7.8 °F 996.8 in Calm   2.1 mph 83 % 0.0 in
14:10 10.6 °F 7.8 °F 996.8 in Calm     83 % 0.0 in
14:15 10.5 °F 7.7 °F 996.8 in Calm     83 % 0.0 in
14:20 10.5 °F 7.9 °F 996.8 in SE 0.2 mph 4.0 mph 84 % 0.0 in
14:25 10.5 °F 7.9 °F 996.8 in ESE 1.0 mph 4.0 mph 84 % 0.0 in
14:30 10.5 °F 7.9 °F 996.8 in East 2.1 mph 5.5 mph 84 % 0.0 in
14:35 10.4 °F 7.8 °F 996.8 in ENE 2.1 mph 5.5 mph 84 % 0.0 in
14:40 10.4 °F 7.8 °F 996.8 in ENE 1.3 mph 5.5 mph 84 % 0.0 in
14:45 10.3 °F 7.7 °F 997.9 in NE 3.2 mph 7.6 mph 84 % 0.0 in
14:50 10.3 °F 7.7 °F 997.9 in NE 3.7 mph 7.6 mph 84 % 0.0 in
14:55 10.2 °F 7.6 °F 997.9 in ENE 1.9 mph 6.9 mph 84 % 0.0 in
15:00 10.3 °F 7.7 °F 996.8 in ENE 3.7 mph 10.5 mph 84 % 0.0 in
15:05 10.3 °F 7.7 °F 996.8 in ENE 4.5 mph 10.5 mph 84 % 0.0 in
15:10 10.3 °F 7.7 °F 996.8 in East 5.0 mph 16.6 mph 84 % 0.0 in
15:16 10.0 °F 7.4 °F 996.2 in ESE 9.8 mph 16.6 mph 84 % 0.0 in
15:21 9.6 °F 7.0 °F 996.2 in ESE 10.0 mph 15.8 mph 84 % 0.0 in
15:26 9.3 °F 6.6 °F 996.2 in East 10.1 mph 16.6 mph 83 % 0.0 in
15:31 8.7 °F 6.0 °F 996.2 in East 11.9 mph 20.6 mph 83 % 0.0 in
15:36 8.4 °F 5.5 °F 996.2 in East 12.6 mph 20.9 mph 82 % 0.0 in
15:41 8.3 °F 5.2 °F 996.2 in East 11.7 mph 20.9 mph 81 % 0.0 in
15:46 8.1 °F 5.1 °F 996.8 in ESE 10.1 mph 16.9 mph 81 % 0.0 in
15:51 7.9 °F 4.8 °F 996.8 in ESE 9.5 mph 15.8 mph 81 % 0.0 in
15:56 7.7 °F 4.7 °F 996.8 in ESE 9.5 mph 15.8 mph 81 % 0.0 in
16:00 7.6 °F 4.4 °F 996.8 in ESE 9.8 mph 16.6 mph 80 % 0.0 in
16:05 7.5 °F 4.3 °F 996.8 in East 9.7 mph 16.6 mph 80 % 0.0 in
16:10 7.5 °F 4.3 °F 996.8 in ENE 9.7 mph 16.9 mph 80 % 0.3 in
16:15 7.3 °F 4.1 °F 996.2 in ENE 10.3 mph 16.9 mph 80 % 0.5 in
16:20 7.1 °F 3.9 °F 996.2 in ENE 9.8 mph 16.6 mph 80 % 1.0 in
16:25 6.9 °F 3.7 °F 996.2 in East 7.7 mph 16.6 mph 80 % 1.3 in
16:30 6.7 °F 3.5 °F 996.8 in ESE 8.4 mph 19.8 mph 80 % 1.8 in
16:35 6.4 °F 3.2 °F 996.8 in ESE 11.3 mph 19.8 mph 80 % 2.0 in
16:40 6.3 °F 3.3 °F 996.8 in East 10.1 mph 17.2 mph 81 % 2.0 in
16:46 6.1 °F 3.1 °F 996.8 in East 9.5 mph 18.3 mph 81 % 2.0 in
16:51 6.0 °F 3.0 °F 996.8 in East 11.4 mph 23.0 mph 81 % 2.3 in
16:56 6.0 °F 3.0 °F 996.8 in ENE 11.6 mph 23.0 mph 81 % 2.5 in
17:01 5.7 °F 2.9 °F 997.9 in ENE 11.6 mph 21.2 mph 82 % 2.5 in
17:06 5.7 °F 2.9 °F 997.9 in ENE 10.8 mph 21.2 mph 82 % 2.8 in
17:11 5.6 °F 2.8 °F 997.9 in East 6.1 mph 15.8 mph 82 % 2.5 in
17:16 5.5 °F 2.7 °F 997.9 in ESE 3.5 mph 6.9 mph 82 % 2.5 in
17:21 5.4 °F 2.6 °F 997.9 in East 3.7 mph 8.7 mph 82 % 2.5 in
17:26 5.3 °F 2.7 °F 997.9 in East 6.0 mph 10.5 mph 83 % 2.5 in
17:31 5.2 °F 2.6 °F 997.9 in East 7.1 mph 10.5 mph 83 % 2.8 in
17:37 5.2 °F 2.6 °F 997.9 in East 6.0 mph 10.5 mph 83 % 3.3 in
17:42 5.1 °F 2.4 °F 997.9 in ESE 5.0 mph 9.3 mph 83 % 3.6 in
17:47 5.0 °F 2.3 °F 996.8 in ESE 5.5 mph 9.3 mph 83 % 3.8 in
17:52 5.0 °F 2.5 °F 996.8 in East 5.0 mph 13.7 mph 84 % 3.3 in
17:57 5.0 °F 2.5 °F 996.8 in ENE 8.2 mph 20.9 mph 84 % 3.8 in
18:02 5.0 °F 2.5 °F 996.8 in ENE 10.9 mph 21.2 mph 84 % 3.6 in
18:07 4.9 °F 2.4 °F 996.8 in ENE 12.1 mph 30.9 mph 84 % 3.6 in
18:12 4.8 °F 2.3 °F 996.8 in ENE 15.8 mph 30.9 mph 84 % 3.3 in
18:17 4.9 °F 2.4 °F 996.8 in ENE 15.8 mph 37.5 mph 84 % 2.5 in
18:22 4.9 °F 2.4 °F 996.8 in ENE 15.4 mph 37.5 mph 84 % 2.3 in
18:27 4.8 °F 2.3 °F 996.8 in ENE 14.8 mph 25.6 mph 84 % 2.3 in
18:32 4.7 °F 2.2 °F 996.8 in ENE 13.0 mph 25.6 mph 84 % 1.8 in
18:37 4.7 °F 2.2 °F 996.8 in ENE 12.2 mph 23.8 mph 84 % 1.5 in
18:42 4.7 °F 2.2 °F 996.8 in ENE 11.3 mph 23.8 mph 84 % 1.0 in
18:47 4.7 °F 2.2 °F 997.9 in East 9.7 mph 17.2 mph 84 % 1.3 in
18:52 4.6 °F 1.9 °F 997.9 in ENE 7.9 mph 16.6 mph 83 % 1.3 in
18:57 4.6 °F 1.9 °F 997.9 in ENE 8.7 mph 17.7 mph 83 % 1.5 in
19:03 4.5 °F 1.9 °F 997.9 in East 7.2 mph 17.7 mph 83 % 2.3 in
19:08 4.4 °F 1.8 °F 997.9 in East 6.4 mph 19.8 mph 83 % 2.5 in
19:13 4.4 °F 1.8 °F 997.9 in ENE 8.7 mph 19.8 mph 83 % 2.8 in
19:18 4.4 °F 1.8 °F 997.9 in ENE 9.8 mph 17.7 mph 83 % 3.0 in
19:23 4.4 °F 1.8 °F 997.9 in ENE 8.5 mph 17.2 mph 83 % 3.3 in
19:28 4.4 °F 1.8 °F 998.9 in ENE 6.3 mph 15.8 mph 83 % 3.3 in
19:33 4.2 °F 1.6 °F 998.9 in ENE 6.1 mph 16.6 mph 83 % 3.3 in
19:38 4.2 °F 1.6 °F 998.9 in ENE 7.9 mph 16.6 mph 83 % 3.8 in
19:43 4.1 °F 1.4 °F 998.9 in ENE 9.2 mph 15.8 mph 83 % 3.8 in
19:48 4.1 °F 1.4 °F 998.9 in ENE 7.9 mph 13.7 mph 83 % 3.8 in
19:53 4.0 °F 1.4 °F 998.9 in ENE 7.7 mph 14.0 mph 83 % 4.1 in
19:58 4.0 °F 1.4 °F 998.9 in ENE 9.3 mph 14.0 mph 83 % 4.1 in
20:03 4.0 °F 1.4 °F 998.9 in ENE 9.5 mph 13.7 mph 83 % 4.1 in
20:08 3.8 °F 1.3 °F 998.9 in ENE 6.4 mph 13.7 mph 84 % 4.3 in
20:13 3.7 °F 1.2 °F 998.9 in East 4.5 mph 9.3 mph 84 % 4.3 in
20:18 3.6 °F 1.2 °F 998.9 in ENE 5.5 mph 10.1 mph 84 % 4.8 in
20:23 3.4 °F 0.9 °F 998.9 in ENE 6.1 mph 10.1 mph 84 % 4.8 in
20:28 3.3 °F 0.8 °F 998.9 in East 6.4 mph 9.7 mph 84 % 5.1 in
20:33 3.1 °F 0.7 °F 998.9 in ENE 6.1 mph 11.1 mph 84 % 5.3 in
20:38 3.1 °F 0.7 °F 998.9 in ENE 5.5 mph 11.1 mph 84 % 5.1 in
20:43 3.0 °F 0.6 °F 998.9 in East 5.6 mph 10.5 mph 84 % 5.3 in
20:48 2.9 °F 0.4 °F 998.9 in East 5.5 mph 10.5 mph 84 % 5.8 in
20:53 2.8 °F 0.5 °F 998.9 in East 5.6 mph 9.3 mph 85 % 5.6 in
20:58 2.7 °F 0.4 °F 998.9 in East 5.3 mph 9.3 mph 85 % 5.6 in
21:03 2.6 °F 0.3 °F 998.9 in ESE 3.5 mph 6.9 mph 85 % 5.3 in
21:09 2.6 °F 0.3 °F 998.9 in ESE 4.5 mph 12.6 mph 85 % 5.1 in
21:14 2.6 °F 0.3 °F 998.9 in ESE 6.3 mph 12.6 mph 85 % 4.8 in
21:19 2.5 °F 0.2 °F 998.9 in East 6.1 mph 11.9 mph 85 % 4.6 in
21:24 2.5 °F 0.2 °F 998.9 in East 5.1 mph 11.9 mph 85 % 4.6 in
21:29 2.5 °F 0.2 °F 998.9 in ESE 4.2 mph 12.6 mph 85 % 4.3 in
21:34 2.6 °F 0.5 °F 998.9 in ESE 3.9 mph 12.6 mph 86 % 4.1 in
21:39 2.6 °F 0.5 °F 998.9 in East 4.2 mph 10.1 mph 86 % 3.8 in
21:44 2.7 °F 0.6 °F 998.9 in ENE 4.8 mph 9.3 mph 86 % 3.6 in
21:49 2.7 °F 0.6 °F 998.9 in ENE 4.3 mph 10.5 mph 86 % 3.0 in
21:54 2.7 °F 0.6 °F 998.9 in ESE 4.0 mph 10.5 mph 86 % 2.8 in
21:59 2.7 °F 0.6 °F 998.9 in SE 3.9 mph 6.9 mph 86 % 3.0 in
22:04 2.7 °F 0.6 °F 998.9 in SSE 2.1 mph 5.5 mph 86 % 2.8 in
22:10 2.7 °F 0.8 °F 998.9 in SE 2.3 mph 5.5 mph 87 % 2.8 in
22:15 2.7 °F 0.8 °F 999.9 in SSW 4.5 mph 10.8 mph 87 % 2.5 in
22:21 2.4 °F 0.4 °F 999.9 in SW 6.9 mph 10.8 mph 87 % 2.5 in
22:25 2.3 °F 0.3 °F 999.9 in SW 6.8 mph 10.1 mph 87 % 2.8 in
22:31 2.2 °F 0.3 °F 999.9 in SW 5.3 mph 7.9 mph 87 % 2.8 in
22:36 2.1 °F 0.2 °F 999.9 in SW 4.8 mph 7.9 mph 87 % 2.5 in
22:41 2.0 °F 0.1 °F 999.9 in SW 5.0 mph 7.9 mph 87 % 2.8 in
22:46 1.9 °F -0.1 °F 998.9 in WSW 5.0 mph 7.9 mph 87 % 2.8 in
22:51 1.8 °F 0.0 °F 998.9 in SW 4.3 mph 6.1 mph 88 % 2.8 in
22:56 1.7 °F -0.1 °F 998.9 in SW 3.4 mph 6.1 mph 88 % 2.8 in
23:01 1.7 °F -0.1 °F 999.9 in SW 3.9 mph 7.9 mph 88 % 2.8 in
23:06 1.6 °F -0.2 °F 999.9 in WSW 4.7 mph 7.9 mph 88 % 2.5 in
23:11 1.6 °F -0.2 °F 999.9 in SW 4.0 mph 6.9 mph 88 % 2.5 in
23:16 1.6 °F -0.2 °F 999.9 in SW 4.3 mph 5.8 mph 88 % 2.5 in
23:19 1.6 °F -0.2 °F 999.9 in SW 4.7 mph 6.4 mph 88 % 2.3 in
23:24 1.5 °F -0.3 °F 999.9 in SW 4.5 mph 6.4 mph 88 % 1.8 in
23:29 1.5 °F -0.3 °F 999.9 in SW 3.7 mph 5.5 mph 88 % 2.0 in
23:33 1.5 °F -0.3 °F 999.9 in SW 2.7 mph 5.0 mph 88 % 1.8 in
23:37 1.5 °F -0.3 °F 999.9 in WSW 1.1 mph 4.7 mph 88 % 1.3 in
23:42 1.5 °F -0.1 °F 999.9 in Calm   2.1 mph 89 % 1.8 in
23:43 1.5 °F -0.1 °F 999.9 in Calm   2.1 mph 89 % 1.8 in
23:48 1.5 °F -0.1 °F 999.9 in Calm   2.1 mph 89 % 1.3 in
23:53 1.4 °F -0.2 °F 999.9 in Calm     89 % 1.0 in
23:54 1.4 °F -0.2 °F 999.9 in Calm   2.1 mph 89 % 1.0 in
23:59 1.4 °F -0.2 °F 998.9 in WSW 1.1 mph 4.0 mph 89 % 1.3 in
Vremenska postaja Senovo
Podatki zbrani iz Weather Underground - 3 mb

Script developed by  Jim McMurry - jmcmurry@mwt.net Adapted for the template by  Wim van der Kuil - Leuven-Template.eu

Vremenski podatki so objavljeni na:

European Weather Network

WeatherCloud

Weather Underground

AWEKAS

HAMweather, WeatherForYou, PWS Weather

MapView

Geostik

Slovenia weather network

Oprema, ki se uporablja:

Vremenski program
Cumulus

Vremenski server
Asus

Cumulus

Asus